createdAt,value
2024-01-30T00:01:13.084Z,101681.56
2024-01-30T00:03:39.877Z,101681.38
2024-01-30T00:06:09.400Z,101677.13
2024-01-30T00:08:39.306Z,101674.31
2024-01-30T00:11:06.167Z,101667.06
2024-01-30T00:13:32.942Z,101671.81
2024-01-30T00:15:59.953Z,101671.69
2024-01-30T00:18:26.733Z,101670.69
2024-01-30T00:20:53.508Z,101659.94
2024-01-30T00:23:20.447Z,101662.06
2024-01-30T00:25:53.297Z,101663.13
2024-01-30T00:28:20.546Z,101665.91
2024-01-30T00:30:47.487Z,101651.56
2024-01-30T00:33:14.607Z,101661.97
2024-01-30T00:35:41.456Z,101664.78
2024-01-30T00:38:09.310Z,101666.75
2024-01-30T00:40:36.174Z,101662.28
2024-01-30T00:43:03.050Z,101659.66
2024-01-30T00:45:29.951Z,101662.81
2024-01-30T00:47:56.770Z,101665.31
2024-01-30T00:50:23.540Z,101664.97
2024-01-30T00:52:50.404Z,101663.16
2024-01-30T00:55:17.259Z,101672.94
2024-01-30T00:57:46.016Z,101673.75
2024-01-30T01:00:13.968Z,101669.28
2024-01-30T01:02:41.363Z,101666.66
2024-01-30T01:05:08.581Z,101659.53
2024-01-30T01:07:35.536Z,101655.69
2024-01-30T01:10:02.588Z,101644.13
2024-01-30T01:12:29.486Z,101646.28
2024-01-30T01:14:56.218Z,101629.56
2024-01-30T01:17:23.251Z,101641.13
2024-01-30T01:19:50.224Z,101635.69
2024-01-30T01:22:18.751Z,101621.25
2024-01-30T01:24:45.571Z,101630.69
2024-01-30T01:27:12.817Z,101635.97
2024-01-30T01:29:40.670Z,101621.75
2024-01-30T01:32:07.449Z,101611.78
2024-01-30T01:34:34.614Z,101600.22
2024-01-30T01:37:01.476Z,101623.06
2024-01-30T01:39:28.488Z,101619.59
2024-01-30T01:41:55.399Z,101640.25
2024-01-30T01:44:22.221Z,101644.72
2024-01-30T01:46:49.103Z,101638.56
2024-01-30T01:49:16.365Z,101638.88
2024-01-30T01:51:46.388Z,101654.59
2024-01-30T01:54:13.679Z,101646.50
2024-01-30T01:56:40.733Z,101646.16
2024-01-30T01:59:11.108Z,101643.50
2024-01-30T02:01:38.341Z,101647.13
2024-01-30T02:04:05.783Z,101646.25
2024-01-30T02:06:33.354Z,101642.41
2024-01-30T02:09:00.215Z,101664.66
2024-01-30T02:11:26.981Z,101664.84
2024-01-30T02:13:53.824Z,101664.47
2024-01-30T02:16:20.837Z,101669.53
2024-01-30T02:18:49.592Z,101668.25
2024-01-30T02:21:17.462Z,101661.59
2024-01-30T02:23:48.330Z,101654.78
2024-01-30T02:26:15.179Z,101641.50
2024-01-30T02:28:42.023Z,101638.03
2024-01-30T02:31:08.869Z,101651.38
2024-01-30T02:33:35.838Z,101650.03
2024-01-30T02:36:02.668Z,101648.38
2024-01-30T02:38:30.260Z,101654.47
2024-01-30T02:40:57.992Z,101658.28
2024-01-30T02:43:24.936Z,101665.50
2024-01-30T02:45:52.065Z,101659.59
2024-01-30T02:48:19.047Z,101660.59
2024-01-30T02:50:45.973Z,101655.31
2024-01-30T02:53:12.781Z,101646.00
2024-01-30T02:55:39.782Z,101645.34
2024-01-30T02:58:06.620Z,101664.44
2024-01-30T03:00:33.412Z,101673.59
2024-01-30T03:03:00.210Z,101679.16
2024-01-30T03:05:27.062Z,101671.41
2024-01-30T03:07:54.021Z,101666.72
2024-01-30T03:10:20.962Z,101672.31
2024-01-30T03:12:47.849Z,101672.72
2024-01-30T03:15:18.031Z,101667.59
2024-01-30T03:17:45.279Z,101679.41
2024-01-30T03:20:12.349Z,101674.31
2024-01-30T03:22:39.109Z,101680.13
2024-01-30T03:25:06.130Z,101678.59
2024-01-30T03:27:32.980Z,101678.59
2024-01-30T03:29:59.853Z,101674.13
2024-01-30T03:32:26.629Z,101688.88
2024-01-30T03:34:53.626Z,101680.56
2024-01-30T03:37:20.568Z,101672.09
2024-01-30T03:39:47.466Z,101676.81
2024-01-30T03:42:14.461Z,101681.72
2024-01-30T03:44:41.196Z,101695.75
2024-01-30T03:47:08.180Z,101688.00
2024-01-30T03:49:35.223Z,101690.25
2024-01-30T03:52:01.996Z,101690.50
2024-01-30T03:54:28.838Z,101702.88
2024-01-30T03:56:55.553Z,101705.81
2024-01-30T03:59:25.713Z,101699.41
2024-01-30T04:01:53.092Z,101700.53
2024-01-30T04:04:20.631Z,101696.91
2024-01-30T04:06:47.525Z,101698.84
2024-01-30T04:09:14.800Z,101693.88
2024-01-30T04:11:41.787Z,101694.72
2024-01-30T04:14:08.632Z,101690.00
2024-01-30T04:16:35.700Z,101690.13
2024-01-30T04:19:02.578Z,101685.28
2024-01-30T04:21:29.337Z,101686.69
2024-01-30T04:23:56.091Z,101687.66
2024-01-30T04:26:22.911Z,101680.72
2024-01-30T04:28:49.808Z,101678.38
2024-01-30T04:31:20.643Z,101683.66
2024-01-30T04:33:47.656Z,101689.50
2024-01-30T04:36:14.497Z,101690.88
2024-01-30T04:38:41.417Z,101686.16
2024-01-30T04:41:08.326Z,101696.56
2024-01-30T04:43:35.102Z,101693.25
2024-01-30T04:46:01.953Z,101696.44
2024-01-30T04:48:28.845Z,101697.16
2024-01-30T04:50:57.394Z,101699.22
2024-01-30T04:53:24.445Z,101699.63
2024-01-30T04:55:51.353Z,101708.66
2024-01-30T04:58:18.178Z,101698.13
2024-01-30T05:00:45.185Z,101692.31
2024-01-30T05:03:12.098Z,101708.81
2024-01-30T05:05:38.973Z,101712.81
2024-01-30T05:08:05.927Z,101718.78
2024-01-30T05:10:32.718Z,101716.44
2024-01-30T05:12:59.584Z,101727.41
2024-01-30T05:15:26.380Z,101723.97
2024-01-30T05:17:53.240Z,101717.00
2024-01-30T05:20:21.550Z,101718.69
2024-01-30T05:22:48.349Z,101723.25
2024-01-30T05:25:15.281Z,101730.03
2024-01-30T05:27:42.157Z,101741.31
2024-01-30T05:30:09.372Z,101749.34
2024-01-30T05:32:36.315Z,101745.47
2024-01-30T05:35:03.360Z,101754.38
2024-01-30T05:37:30.165Z,101774.06
2024-01-30T05:39:57.123Z,101784.63
2024-01-30T05:42:24.552Z,101787.69
2024-01-30T05:44:51.426Z,101787.25
2024-01-30T05:47:18.168Z,101792.00
2024-01-30T05:49:44.998Z,101794.91
2024-01-30T05:52:12.481Z,101802.13
2024-01-30T05:54:44.039Z,101812.38
2024-01-30T05:57:11.046Z,101818.91
2024-01-30T05:59:39.764Z,101825.97
2024-01-30T06:02:08.679Z,101830.41
2024-01-30T06:04:35.833Z,101826.81
2024-01-30T06:07:03.828Z,101838.47
2024-01-30T06:09:30.815Z,101833.41
2024-01-30T06:11:57.600Z,101839.09
2024-01-30T06:14:25.718Z,101841.31
2024-01-30T06:16:52.493Z,101857.66
2024-01-30T06:19:19.328Z,101852.94
2024-01-30T06:21:46.843Z,101858.59
2024-01-30T06:24:13.822Z,101853.63
2024-01-30T06:26:41.105Z,101860.56
2024-01-30T06:29:08.842Z,101861.81
2024-01-30T06:31:41.393Z,101858.72
2024-01-30T06:34:08.428Z,101864.00
2024-01-30T06:36:35.701Z,101869.94
2024-01-30T06:39:03.788Z,101879.81
2024-01-30T06:41:31.130Z,101886.16
2024-01-30T06:43:58.155Z,101903.91
2024-01-30T06:46:24.997Z,101898.91
2024-01-30T06:48:51.965Z,101907.91
2024-01-30T06:51:18.894Z,101904.28
2024-01-30T06:53:45.801Z,101912.50
2024-01-30T06:56:12.692Z,101921.78
2024-01-30T06:58:39.483Z,101918.19
2024-01-30T07:01:06.314Z,101919.69
2024-01-30T07:03:33.348Z,101925.38
2024-01-30T07:06:00.190Z,101927.59
2024-01-30T07:08:27.050Z,101939.97
2024-01-30T07:10:59.898Z,101943.56
2024-01-30T07:13:29.800Z,101948.84
2024-01-30T07:15:56.681Z,101947.16
2024-01-30T07:18:23.586Z,101951.31
2024-01-30T07:20:50.970Z,101950.53
2024-01-30T07:23:19.127Z,101959.22
2024-01-30T07:25:48.393Z,101959.38
2024-01-30T07:28:18.431Z,101973.63
2024-01-30T07:30:45.396Z,101977.09
2024-01-30T07:33:12.377Z,101987.41
2024-01-30T07:35:39.273Z,101993.25
2024-01-30T07:38:06.656Z,101997.28
2024-01-30T07:40:34.774Z,102000.88
2024-01-30T07:43:02.479Z,102007.81
2024-01-30T07:45:33.857Z,102015.00
2024-01-30T07:48:03.652Z,102013.81
2024-01-30T07:50:30.511Z,102010.72
2024-01-30T07:52:58.192Z,102007.50
2024-01-30T07:55:33.251Z,102021.78
2024-01-30T07:58:03.230Z,102028.56
2024-01-30T08:00:30.694Z,102028.97
2024-01-30T08:02:57.800Z,102042.66
2024-01-30T08:05:25.470Z,102050.44
2024-01-30T08:07:52.658Z,102059.31
2024-01-30T08:10:22.347Z,102063.44
2024-01-30T08:13:05.139Z,102072.81
2024-01-30T08:15:32.023Z,102086.28
2024-01-30T08:18:01.886Z,102085.81
2024-01-30T08:20:28.831Z,102092.63
2024-01-30T08:22:55.708Z,102100.41
2024-01-30T08:25:23.213Z,102103.28
2024-01-30T08:27:50.307Z,102105.91
2024-01-30T08:30:17.391Z,102106.91
2024-01-30T08:32:44.279Z,102106.06
2024-01-30T08:35:11.291Z,102113.38
2024-01-30T08:37:38.305Z,102122.94
2024-01-30T08:40:06.262Z,102124.63
2024-01-30T08:42:33.304Z,102130.16
2024-01-30T08:47:59.132Z,102138.06
2024-01-30T08:50:27.600Z,102137.91
2024-01-30T08:52:54.565Z,102146.66
2024-01-30T08:55:34.014Z,102142.13
2024-01-30T08:58:13.890Z,102158.88
2024-01-30T09:00:50.724Z,102160.34
2024-01-30T09:03:26.167Z,102166.06
2024-01-30T09:06:05.145Z,102170.38
2024-01-30T09:08:39.580Z,102176.03
2024-01-30T09:11:16.617Z,102186.69
2024-01-30T09:13:53.844Z,102183.81
2024-01-30T09:16:20.705Z,102187.03
2024-01-30T09:18:47.734Z,102194.84
2024-01-30T09:21:14.517Z,102195.06
2024-01-30T09:23:41.434Z,102201.06
2024-01-30T09:26:08.253Z,102205.28
2024-01-30T09:28:35.448Z,102205.13
2024-01-30T09:31:02.265Z,102205.97
2024-01-30T09:33:29.146Z,102216.41
2024-01-30T09:35:56.183Z,102227.06
2024-01-30T09:38:22.969Z,102222.41
2024-01-30T09:40:54.933Z,102223.81
2024-01-30T09:43:26.964Z,102234.47
2024-01-30T09:45:54.980Z,102231.84
2024-01-30T09:48:22.117Z,102238.69
2024-01-30T09:50:49.049Z,102246.34
2024-01-30T09:53:15.861Z,102249.09
2024-01-30T09:55:44.200Z,102252.09
2024-01-30T09:58:10.978Z,102256.03
2024-01-30T10:00:38.068Z,102264.06
2024-01-30T10:03:05.012Z,102267.31
2024-01-30T10:05:35.222Z,102260.94
2024-01-30T10:08:02.465Z,102265.81
2024-01-30T10:10:29.436Z,102270.88
2024-01-30T10:12:56.499Z,102278.28
2024-01-30T10:15:23.277Z,102280.09
2024-01-30T10:17:50.740Z,102283.91
2024-01-30T10:20:19.492Z,102279.25
2024-01-30T10:22:47.325Z,102293.03
2024-01-30T10:25:14.448Z,102298.19
2024-01-30T10:27:41.522Z,102300.66
2024-01-30T10:30:09.060Z,102312.19
2024-01-30T10:32:36.025Z,102314.13
2024-01-30T10:35:06.567Z,102325.63
2024-01-30T10:37:35.172Z,102323.47
2024-01-30T10:40:05.093Z,102326.56
2024-01-30T10:42:33.215Z,102332.00
2024-01-30T10:45:10.094Z,102334.16
2024-01-30T10:47:40.484Z,102345.03
2024-01-30T10:50:09.230Z,102346.69
2024-01-30T10:52:36.495Z,102356.41
2024-01-30T10:55:06.329Z,102357.63
2024-01-30T10:57:35.180Z,102360.16
2024-01-30T11:00:02.964Z,102361.47
2024-01-30T11:02:30.213Z,102368.31
2024-01-30T11:05:04.515Z,102375.84
2024-01-30T11:07:31.700Z,102378.50
2024-01-30T11:10:03.138Z,102388.88
2024-01-30T11:12:30.501Z,102390.81
2024-01-30T11:15:16.588Z,102394.41
2024-01-30T11:17:49.690Z,102385.56
2024-01-30T11:20:17.627Z,102397.06
2024-01-30T11:22:46.525Z,102384.13
2024-01-30T11:25:17.142Z,102381.34
2024-01-30T11:27:45.069Z,102378.22
2024-01-30T11:30:12.314Z,102393.94
2024-01-30T11:32:39.281Z,102396.69
2024-01-30T11:35:07.960Z,102395.84
2024-01-30T11:37:38.506Z,102412.38
2024-01-30T11:40:05.851Z,102416.47
2024-01-30T11:42:33.284Z,102412.88
2024-01-30T11:45:02.147Z,102426.06
2024-01-30T11:47:29.211Z,102418.41
2024-01-30T11:49:58.333Z,102418.13
2024-01-30T11:52:27.365Z,102426.06
2024-01-30T11:54:54.536Z,102426.41
2024-01-30T11:57:21.529Z,102433.00
2024-01-30T11:59:48.317Z,102441.97
2024-01-30T12:02:19.066Z,102433.34
2024-01-30T12:04:48.408Z,102439.09
2024-01-30T12:07:17.491Z,102439.31
2024-01-30T12:09:53.211Z,102443.78
2024-01-30T12:12:20.228Z,102444.50
2024-01-30T12:14:47.553Z,102439.31
2024-01-30T12:17:24.193Z,102446.16
2024-01-30T12:19:51.129Z,102436.22
2024-01-30T12:22:17.962Z,102445.56
2024-01-30T12:24:49.642Z,102441.03
2024-01-30T12:27:17.189Z,102446.78
2024-01-30T12:29:44.118Z,102444.97
2024-01-30T12:32:16.043Z,102444.50
2024-01-30T12:34:54.671Z,102450.25
2024-01-30T12:37:27.601Z,102462.88
2024-01-30T12:39:55.670Z,102468.41
2024-01-30T12:42:25.292Z,102465.13
2024-01-30T12:44:52.000Z,102465.75
2024-01-30T12:47:18.872Z,102464.78
2024-01-30T12:49:46.191Z,102478.81
2024-01-30T12:52:13.710Z,102473.91
2024-01-30T12:54:48.277Z,102477.75
2024-01-30T12:57:15.102Z,102477.38
2024-01-30T12:59:50.242Z,102490.22
2024-01-30T13:02:17.473Z,102484.31
2024-01-30T13:04:51.182Z,102481.69
2024-01-30T13:07:18.206Z,102479.78
2024-01-30T13:09:45.458Z,102488.03
2024-01-30T13:12:12.758Z,102493.91
2024-01-30T13:14:54.074Z,102491.19
2024-01-30T13:17:20.998Z,102498.34
2024-01-30T13:19:48.144Z,102500.16
2024-01-30T13:22:15.096Z,102497.50
2024-01-30T13:24:49.378Z,102507.22
2024-01-30T13:27:16.173Z,102502.56
2024-01-30T13:29:42.991Z,102505.78
2024-01-30T13:32:09.839Z,102509.16
2024-01-30T13:34:46.919Z,102513.81
2024-01-30T13:37:13.905Z,102508.91
2024-01-30T13:39:40.743Z,102513.22
2024-01-30T13:42:07.593Z,102519.34
2024-01-30T13:44:34.446Z,102520.28
2024-01-30T13:47:01.391Z,102524.84
2024-01-30T13:49:28.599Z,102531.09
2024-01-30T13:51:58.195Z,102537.56
2024-01-30T13:54:31.312Z,102532.91
2024-01-30T13:56:58.705Z,102538.88
2024-01-30T13:59:27.362Z,102543.31
2024-01-30T14:01:54.374Z,102540.09
2024-01-30T14:04:25.149Z,102535.66
2024-01-30T14:06:57.445Z,102540.66
2024-01-30T14:09:31.365Z,102539.59
2024-01-30T14:11:58.093Z,102547.41
2024-01-30T14:14:36.098Z,102545.72
2024-01-30T14:17:03.298Z,102548.47
2024-01-30T14:19:30.364Z,102554.22
2024-01-30T14:21:57.318Z,102557.81
2024-01-30T14:24:24.159Z,102561.28
2024-01-30T14:26:51.296Z,102571.72
2024-01-30T14:29:18.138Z,102576.91
2024-01-30T14:31:44.932Z,102572.69
2024-01-30T14:34:12.206Z,102570.03
2024-01-30T14:36:39.329Z,102579.16
2024-01-30T14:39:08.086Z,102576.25
2024-01-30T14:41:35.535Z,102578.97
2024-01-30T14:44:03.777Z,102580.53
2024-01-30T14:46:31.722Z,102585.38
2024-01-30T14:48:59.407Z,102586.81
2024-01-30T14:51:26.850Z,102580.22
2024-01-30T14:53:53.645Z,102579.81
2024-01-30T14:56:22.282Z,102587.94
2024-01-30T14:58:49.320Z,102585.44
2024-01-30T15:01:16.216Z,102583.88
2024-01-30T15:03:44.972Z,102590.94
2024-01-30T15:06:13.929Z,102590.09
2024-01-30T15:08:40.724Z,102587.25
2024-01-30T15:11:08.024Z,102601.97
2024-01-30T15:13:34.858Z,102598.84
2024-01-30T15:16:04.579Z,102603.28
2024-01-30T15:18:31.572Z,102613.81
2024-01-30T15:20:58.430Z,102623.03
2024-01-30T15:23:25.171Z,102614.63
2024-01-30T15:25:51.991Z,102619.19
2024-01-30T15:28:18.904Z,102612.22
2024-01-30T15:30:46.003Z,102622.16
2024-01-30T15:33:12.828Z,102630.28
2024-01-30T15:35:40.512Z,102641.66
2024-01-30T15:38:10.366Z,102645.16
2024-01-30T15:40:37.297Z,102645.16
2024-01-30T15:43:04.210Z,102652.09
2024-01-30T15:45:35.819Z,102654.84
2024-01-30T15:48:02.649Z,102657.47
2024-01-30T15:50:29.536Z,102653.28
2024-01-30T15:52:56.449Z,102648.88
2024-01-30T15:55:23.340Z,102646.34
2024-01-30T15:57:50.499Z,102651.38
2024-01-30T16:00:18.925Z,102656.97
2024-01-30T16:02:48.768Z,102653.00
2024-01-30T16:05:15.980Z,102661.25
2024-01-30T16:07:42.969Z,102677.28
2024-01-30T16:10:09.842Z,102678.31
2024-01-30T16:12:36.662Z,102680.63
2024-01-30T16:15:03.680Z,102684.00
2024-01-30T16:17:34.570Z,102686.63
2024-01-30T16:20:03.081Z,102686.41
2024-01-30T16:22:30.024Z,102695.16
2024-01-30T16:24:57.024Z,102710.13
2024-01-30T16:27:23.899Z,102714.44
2024-01-30T16:29:50.846Z,102715.72
2024-01-30T16:32:17.651Z,102721.84
2024-01-30T16:34:50.146Z,102718.59
2024-01-30T16:37:17.033Z,102720.63
2024-01-30T16:39:44.576Z,102720.63
2024-01-30T16:42:12.346Z,102709.44
2024-01-30T16:44:45.009Z,102705.44
2024-01-30T16:47:11.798Z,102703.78
2024-01-30T16:49:38.886Z,102710.00
2024-01-30T16:52:06.170Z,102715.13
2024-01-30T16:54:36.120Z,102710.84
2024-01-30T16:57:03.024Z,102710.84
2024-01-30T16:59:29.874Z,102709.16
2024-01-30T17:01:57.132Z,102716.94
2024-01-30T17:04:34.863Z,102718.75
2024-01-30T17:07:04.066Z,102707.13
2024-01-30T17:09:31.213Z,102721.06
2024-01-30T17:11:58.016Z,102725.06
2024-01-30T17:14:25.876Z,102729.28
2024-01-30T17:17:00.131Z,102731.06
2024-01-30T17:19:30.176Z,102734.31
2024-01-30T17:21:57.123Z,102733.72
2024-01-30T17:24:37.956Z,102726.66
2024-01-30T17:27:14.968Z,102734.56
2024-01-30T17:29:41.986Z,102740.88
2024-01-30T17:32:08.853Z,102746.13
2024-01-30T17:34:35.851Z,102750.56
2024-01-30T17:37:02.724Z,102744.56
2024-01-30T17:39:29.544Z,102757.75
2024-01-30T17:41:56.367Z,102757.84
2024-01-30T17:44:23.824Z,102757.94
2024-01-30T17:46:51.888Z,102759.53
2024-01-30T17:49:18.828Z,102755.72
2024-01-30T17:51:45.780Z,102761.94
2024-01-30T17:54:12.542Z,102768.38
2024-01-30T17:56:39.318Z,102764.78
2024-01-30T17:59:06.336Z,102769.31
2024-01-30T18:01:33.239Z,102776.19
2024-01-30T18:04:00.151Z,102769.13
2024-01-30T18:06:27.123Z,102773.53
2024-01-30T18:08:53.964Z,102776.38
2024-01-30T18:11:20.852Z,102786.06
2024-01-30T18:13:50.527Z,102790.38
2024-01-30T18:16:17.476Z,102794.94
2024-01-30T18:18:45.054Z,102802.94
2024-01-30T18:21:12.112Z,102811.88
2024-01-30T18:23:39.072Z,102814.41
2024-01-30T18:26:06.068Z,102819.69
2024-01-30T18:28:33.115Z,102826.13
2024-01-30T18:31:02.364Z,102825.28
2024-01-30T18:33:29.246Z,102828.84
2024-01-30T18:35:56.461Z,102827.28
2024-01-30T18:38:24.580Z,102831.88
2024-01-30T18:40:51.574Z,102832.88
2024-01-30T18:43:19.034Z,102832.03
2024-01-30T18:45:52.708Z,102835.59
2024-01-30T18:48:19.634Z,102837.69
2024-01-30T18:50:48.102Z,102837.78
2024-01-30T18:53:16.093Z,102859.59
2024-01-30T18:55:46.201Z,102857.81
2024-01-30T18:58:16.682Z,102865.59
2024-01-30T19:00:48.334Z,102866.56
2024-01-30T19:03:17.803Z,102860.31
2024-01-30T19:05:45.040Z,102865.28
2024-01-30T19:08:12.342Z,102867.19
2024-01-30T19:10:43.199Z,102874.03
2024-01-30T19:13:11.350Z,102878.66
2024-01-30T19:15:38.357Z,102871.59
2024-01-30T19:18:05.381Z,102869.19
2024-01-30T19:20:32.244Z,102875.59
2024-01-30T19:22:59.107Z,102885.41
2024-01-30T19:25:26.806Z,102886.88
2024-01-30T19:28:00.351Z,102898.97
2024-01-30T19:30:27.520Z,102895.53
2024-01-30T19:32:54.499Z,102901.06
2024-01-30T19:35:21.766Z,102911.41
2024-01-30T19:37:48.823Z,102907.31
2024-01-30T19:40:17.272Z,102917.09
2024-01-30T19:42:44.151Z,102927.53
2024-01-30T19:45:12.909Z,102923.75
2024-01-30T19:47:39.831Z,102922.78
2024-01-30T19:50:08.203Z,102926.38
2024-01-30T19:52:35.689Z,102921.09
2024-01-30T19:55:02.800Z,102925.44
2024-01-30T19:57:29.561Z,102931.63
2024-01-30T19:59:56.376Z,102924.69
2024-01-30T20:02:23.202Z,102942.47
2024-01-30T20:04:53.088Z,102948.47
2024-01-30T20:07:19.929Z,102953.72
2024-01-30T20:09:46.693Z,102959.97
2024-01-30T20:12:13.670Z,102959.13
2024-01-30T20:14:50.204Z,102963.44
2024-01-30T20:17:17.359Z,102968.81
2024-01-30T20:19:49.186Z,102975.09
2024-01-30T20:22:17.071Z,102977.09
2024-01-30T20:24:47.934Z,102982.28
2024-01-30T20:27:16.580Z,102983.22
2024-01-30T20:29:43.416Z,102986.59
2024-01-30T20:32:10.572Z,102979.50
2024-01-30T20:34:46.112Z,102983.13
2024-01-30T20:37:13.079Z,102984.16
2024-01-30T20:39:42.283Z,102987.72
2024-01-30T20:42:09.560Z,102994.03
2024-01-30T20:44:44.883Z,102990.66
2024-01-30T20:47:12.466Z,102998.38
2024-01-30T20:49:40.514Z,103000.16
2024-01-30T20:52:07.447Z,102997.53
2024-01-30T20:54:36.219Z,102999.31
2024-01-30T20:57:03.111Z,102997.41
2024-01-30T20:59:30.050Z,103007.94
2024-01-30T21:01:57.036Z,103012.25
2024-01-30T21:04:28.756Z,103002.78
2024-01-30T21:06:55.793Z,103006.34
2024-01-30T21:09:22.655Z,103008.03
2024-01-30T21:11:49.475Z,103008.22
2024-01-30T21:14:16.455Z,103018.88
2024-01-30T21:16:43.485Z,103010.13
2024-01-30T21:19:11.461Z,103008.22
2024-01-30T21:21:38.337Z,103002.13
2024-01-30T21:24:05.373Z,103003.94
2024-01-30T21:26:32.165Z,103008.03
2024-01-30T21:28:59.544Z,103001.09
2024-01-30T21:31:26.364Z,103004.88
2024-01-30T21:33:54.076Z,103008.22
2024-01-30T21:36:20.953Z,102995.28
2024-01-30T21:38:47.745Z,102987.38
2024-01-30T21:41:15.290Z,103002.25
2024-01-30T21:43:42.326Z,102996.03
2024-01-30T21:46:09.460Z,102985.38
2024-01-30T21:48:36.549Z,102982.75
2024-01-30T21:51:03.453Z,102982.75
2024-01-30T21:53:30.362Z,102982.88
2024-01-30T21:55:57.148Z,102993.28
2024-01-30T21:58:23.982Z,102994.50
2024-01-30T22:00:50.792Z,102992.44
2024-01-30T22:03:17.657Z,102984.97
2024-01-30T22:05:44.633Z,102993.59
2024-01-30T22:08:11.487Z,103000.75
2024-01-30T22:10:38.367Z,102999.34
2024-01-30T22:13:05.334Z,103003.22
2024-01-30T22:15:34.365Z,103006.88
2024-01-30T22:18:01.186Z,103003.50
2024-01-30T22:20:30.342Z,102997.09
2024-01-30T22:22:57.272Z,102995.41
2024-01-30T22:25:24.165Z,102985.94
2024-01-30T22:27:54.281Z,102989.50
2024-01-30T22:30:21.427Z,102990.22
2024-01-30T22:32:48.256Z,102991.09
2024-01-30T22:35:16.360Z,102993.41
2024-01-30T22:37:43.711Z,102995.75
2024-01-30T22:40:10.958Z,102998.22
2024-01-30T22:42:37.863Z,102994.63
2024-01-30T22:45:04.913Z,102987.69
2024-01-30T22:47:31.795Z,102987.78
2024-01-30T22:49:58.797Z,102981.78
2024-01-30T22:52:25.706Z,102983.34
2024-01-30T22:54:53.299Z,102986.91
2024-01-30T22:57:22.822Z,102980.81
2024-01-30T22:59:51.400Z,102985.78
2024-01-30T23:02:18.565Z,102982.31
2024-01-30T23:04:55.648Z,102978.94
2024-01-30T23:07:22.700Z,102977.88
2024-01-30T23:09:49.601Z,102987.78
2024-01-30T23:12:18.400Z,102994.09
2024-01-30T23:14:58.939Z,102989.94
2024-01-30T23:17:25.917Z,102994.38
2024-01-30T23:19:52.825Z,102999.34
2024-01-30T23:22:19.580Z,103001.88
2024-01-30T23:24:47.890Z,103001.31
2024-01-30T23:27:14.729Z,102998.50
2024-01-30T23:29:41.716Z,103002.84
2024-01-30T23:32:08.502Z,103005.56
2024-01-30T23:34:35.412Z,103002.16
2024-01-30T23:37:02.235Z,103006.78
2024-01-30T23:39:29.380Z,103013.75
2024-01-30T23:41:56.099Z,103014.47
2024-01-30T23:44:31.206Z,103015.03
2024-01-30T23:46:58.078Z,103014.84
2024-01-30T23:49:25.065Z,103012.00
2024-01-30T23:51:52.036Z,103011.28
2024-01-30T23:54:18.993Z,103012.22
2024-01-30T23:56:48.342Z,103005.34
2024-01-30T23:59:16.955Z,103005.34
